createdAt,value
2022-12-24T00:03:18.541Z,98.17
2022-12-24T00:08:20.461Z,98.74
2022-12-24T00:13:22.144Z,99.69
2022-12-24T00:18:23.992Z,100.00
2022-12-24T00:23:25.792Z,100.00
2022-12-24T00:28:27.581Z,100.00
2022-12-24T00:33:29.247Z,100.00
2022-12-24T00:38:31.087Z,100.00
2022-12-24T00:43:32.798Z,100.00
2022-12-24T00:48:34.443Z,100.00
2022-12-24T00:53:36.147Z,100.00
2022-12-24T00:58:37.983Z,100.00
2022-12-24T01:03:39.996Z,100.00
2022-12-24T01:08:42.671Z,100.00
2022-12-24T01:13:44.506Z,100.00
2022-12-24T01:18:46.660Z,100.00
2022-12-24T01:23:49.129Z,100.00
2022-12-24T01:28:50.875Z,100.00
2022-12-24T01:33:52.641Z,100.00
2022-12-24T01:38:54.282Z,100.00
2022-12-24T01:43:55.947Z,100.00
2022-12-24T01:49:04.014Z,100.00
2022-12-24T01:54:32.710Z,100.00
2022-12-24T01:59:36.174Z,100.00
2022-12-24T02:04:47.412Z,100.00
2022-12-24T02:09:53.148Z,99.12
2022-12-24T02:14:55.136Z,98.24
2022-12-24T02:20:08.953Z,97.65
2022-12-24T02:25:20.298Z,96.63
2022-12-24T02:30:23.145Z,96.10
2022-12-24T02:35:35.359Z,95.84
2022-12-24T02:40:42.931Z,95.95
2022-12-24T02:45:50.364Z,96.59
2022-12-24T02:50:57.379Z,97.53
2022-12-24T02:56:46.612Z,97.94
2022-12-24T03:02:05.272Z,98.35
2022-12-24T03:07:27.221Z,98.72
2022-12-24T03:12:41.277Z,98.86
2022-12-24T03:17:47.558Z,99.39
2022-12-24T03:22:49.331Z,99.61
2022-12-24T03:27:51.741Z,100.00
2022-12-24T03:32:53.439Z,100.00
2022-12-24T03:37:55.299Z,98.06
2022-12-24T03:42:57.220Z,98.68
2022-12-24T03:47:58.928Z,99.96
2022-12-24T03:53:00.590Z,100.00
2022-12-24T03:58:02.264Z,100.00
2022-12-24T04:03:04.114Z,100.00
2022-12-24T04:08:06.007Z,100.00
2022-12-24T04:13:07.701Z,100.00
2022-12-24T04:18:09.533Z,100.00
2022-12-24T04:23:11.217Z,100.00
2022-12-24T04:28:13.894Z,100.00
2022-12-24T04:33:15.639Z,100.00
2022-12-24T04:38:17.442Z,100.00
2022-12-24T04:43:19.143Z,100.00
2022-12-24T04:48:21.188Z,99.99
2022-12-24T04:53:22.891Z,99.23
2022-12-24T04:58:25.355Z,98.50
2022-12-24T05:03:27.305Z,98.00
2022-12-24T05:08:29.412Z,97.62
2022-12-24T05:13:39.140Z,97.04
2022-12-24T05:18:46.432Z,96.75
2022-12-24T05:24:08.760Z,95.95
2022-12-24T05:29:12.287Z,95.61
2022-12-24T05:34:15.589Z,94.96
2022-12-24T05:39:18.470Z,94.87
2022-12-24T05:44:20.156Z,94.76
2022-12-24T05:49:21.808Z,94.51
2022-12-24T05:54:23.648Z,94.52
2022-12-24T05:59:25.243Z,94.48
2022-12-24T06:04:29.279Z,94.46
2022-12-24T06:09:31.287Z,94.46
2022-12-24T06:14:32.948Z,94.58
2022-12-24T06:19:34.596Z,94.43
2022-12-24T06:24:36.472Z,94.59
2022-12-24T06:29:38.185Z,94.86
2022-12-24T06:34:39.839Z,94.99
2022-12-24T06:39:41.512Z,94.93
2022-12-24T06:44:43.185Z,94.89
2022-12-24T06:49:45.433Z,93.87
2022-12-24T06:54:47.161Z,93.75
2022-12-24T06:59:48.863Z,93.68
2022-12-24T07:04:50.540Z,93.84
2022-12-24T07:09:52.219Z,94.29
2022-12-24T07:14:53.867Z,94.51
2022-12-24T07:19:55.657Z,94.19
2022-12-24T07:24:57.471Z,94.14
2022-12-24T07:29:59.332Z,94.69
2022-12-24T07:35:01.079Z,94.67
2022-12-24T07:40:06.236Z,95.27
2022-12-24T07:45:08.758Z,96.28
2022-12-24T07:50:11.170Z,97.28
2022-12-24T07:55:13.665Z,97.80
2022-12-24T08:00:15.934Z,97.99
2022-12-24T08:05:17.678Z,98.59
2022-12-24T08:10:19.459Z,98.82
2022-12-24T08:15:21.253Z,99.02
2022-12-24T08:20:22.932Z,98.62
2022-12-24T08:25:24.563Z,98.48
2022-12-24T08:30:26.477Z,98.52
2022-12-24T08:35:28.393Z,98.52
2022-12-24T08:40:30.251Z,98.41
2022-12-24T08:45:37.910Z,98.49
2022-12-24T08:50:42.426Z,98.93
2022-12-24T08:55:44.786Z,99.00
2022-12-24T09:00:47.690Z,99.11
2022-12-24T09:05:49.533Z,98.69
2022-12-24T09:10:51.264Z,98.53
2022-12-24T09:15:56.246Z,98.04
2022-12-24T09:21:07.078Z,97.95
2022-12-24T09:26:12.110Z,97.76
2022-12-24T09:31:14.264Z,97.47
2022-12-24T09:36:16.097Z,96.67
2022-12-24T09:41:45.515Z,96.65
2022-12-24T09:46:49.489Z,95.66
2022-12-24T09:52:00.400Z,95.28
2022-12-24T09:57:08.237Z,93.85
2022-12-24T10:02:19.962Z,93.31
2022-12-24T10:07:43.995Z,93.23
2022-12-24T10:12:57.292Z,92.15
2022-12-24T10:18:10.988Z,93.15
2022-12-24T10:23:34.409Z,93.51
2022-12-24T10:28:41.957Z,93.19
2022-12-24T10:33:49.910Z,91.91
2022-12-24T10:38:51.587Z,92.18
2022-12-24T10:43:54.160Z,90.86
2022-12-24T10:49:05.150Z,90.73
2022-12-24T10:54:13.452Z,90.14
2022-12-24T10:59:33.802Z,89.48
2022-12-24T11:04:49.393Z,89.29
2022-12-24T11:09:57.541Z,87.87
2022-12-24T11:15:16.102Z,87.29
2022-12-24T11:20:22.777Z,85.74
2022-12-24T11:25:31.629Z,84.61
2022-12-24T11:30:33.872Z,85.10
2022-12-24T11:35:41.504Z,84.38
2022-12-24T11:40:47.429Z,84.72
2022-12-24T11:45:57.350Z,84.42
2022-12-24T11:51:05.572Z,83.16
2022-12-24T11:56:17.412Z,82.87
2022-12-24T12:01:33.495Z,81.49
2022-12-24T12:06:55.497Z,80.97
2022-12-24T12:12:12.497Z,81.30
2022-12-24T12:17:26.182Z,80.53
2022-12-24T12:22:35.675Z,80.65
2022-12-24T12:27:46.023Z,80.53
2022-12-24T12:33:05.940Z,81.08
2022-12-24T12:38:25.251Z,80.35
2022-12-24T12:44:01.875Z,80.82
2022-12-24T12:49:48.945Z,79.83
2022-12-24T12:54:59.643Z,79.02
2022-12-24T13:00:11.763Z,79.92
2022-12-24T13:05:50.904Z,79.58
2022-12-24T13:11:12.791Z,79.92
2022-12-24T13:16:38.999Z,79.16
2022-12-24T13:21:46.063Z,79.40
2022-12-24T13:27:15.565Z,79.08
2022-12-24T13:32:20.141Z,79.65
2022-12-24T13:37:43.297Z,79.64
2022-12-24T13:43:01.246Z,79.55
2022-12-24T13:48:05.983Z,79.45
2022-12-24T13:53:25.417Z,79.81
2022-12-24T13:58:27.525Z,80.53
2022-12-24T14:03:41.609Z,80.47
2022-12-24T14:08:46.023Z,80.47
2022-12-24T14:13:51.526Z,80.46
2022-12-24T14:19:14.489Z,80.84
2022-12-24T14:24:17.882Z,80.77
2022-12-24T14:29:27.469Z,81.42
2022-12-24T14:34:29.481Z,81.55
2022-12-24T14:39:34.404Z,81.67
2022-12-24T14:44:57.094Z,81.64
2022-12-24T14:50:05.540Z,81.65
2022-12-24T14:55:32.018Z,81.75
2022-12-24T15:00:39.294Z,81.75
2022-12-24T15:05:42.389Z,81.60
2022-12-24T15:10:45.183Z,81.85
2022-12-24T15:15:53.393Z,81.89
2022-12-24T15:21:03.663Z,82.03
2022-12-24T15:26:18.930Z,82.33
2022-12-24T15:31:23.082Z,82.11
2022-12-24T15:36:37.709Z,81.75
2022-12-24T15:42:02.351Z,81.91
2022-12-24T15:47:08.462Z,81.91
2022-12-24T15:52:15.693Z,82.01
2022-12-24T15:57:32.322Z,82.09
2022-12-24T16:02:41.687Z,82.10
2022-12-24T16:08:09.088Z,81.98
2022-12-24T16:13:18.563Z,82.39
2022-12-24T16:18:32.175Z,82.44
2022-12-24T16:23:47.302Z,82.53
2022-12-24T16:28:49.378Z,82.79
2022-12-24T16:33:53.002Z,82.62
2022-12-24T16:39:13.075Z,82.75
2022-12-24T16:44:14.738Z,82.55
2022-12-24T16:49:18.584Z,82.49
2022-12-24T16:54:20.228Z,82.71
2022-12-24T16:59:23.792Z,82.76
2022-12-24T17:04:25.483Z,82.98
2022-12-24T17:09:27.131Z,82.73
2022-12-24T17:14:28.956Z,82.75
2022-12-24T17:19:30.621Z,82.72
2022-12-24T17:24:32.317Z,82.49
2022-12-24T17:29:34.002Z,82.48
2022-12-24T17:34:35.739Z,82.31
2022-12-24T17:39:37.491Z,82.34
2022-12-24T17:44:39.301Z,82.57
2022-12-24T17:49:40.994Z,82.93
2022-12-24T17:54:42.688Z,82.71
2022-12-24T17:59:44.604Z,83.10
2022-12-24T18:04:46.385Z,83.31
2022-12-24T18:09:48.052Z,83.20
2022-12-24T18:14:49.837Z,83.31
2022-12-24T18:19:51.581Z,83.42
2022-12-24T18:24:53.321Z,83.83
2022-12-24T18:29:54.967Z,83.47
2022-12-24T18:34:56.723Z,83.58
2022-12-24T18:39:58.517Z,83.75
2022-12-24T18:45:00.312Z,83.73
2022-12-24T18:50:02.168Z,83.58
2022-12-24T18:55:04.128Z,83.88
2022-12-24T19:00:06.772Z,84.62
2022-12-24T19:05:08.504Z,85.51
2022-12-24T19:10:10.900Z,85.77
2022-12-24T19:15:12.927Z,85.77
2022-12-24T19:20:14.705Z,85.33
2022-12-24T19:25:16.475Z,85.41
2022-12-24T19:30:18.251Z,85.65
2022-12-24T19:35:20.181Z,86.06
2022-12-24T19:40:21.807Z,86.58
2022-12-24T19:45:23.952Z,87.12
2022-12-24T19:50:25.708Z,87.28
2022-12-24T19:55:28.039Z,87.34
2022-12-24T20:00:29.841Z,87.72
2022-12-24T20:05:31.499Z,88.58
2022-12-24T20:10:38.838Z,88.54
2022-12-24T20:15:42.881Z,89.06
2022-12-24T20:20:44.588Z,89.05
2022-12-24T20:25:46.188Z,89.56
2022-12-24T20:30:47.838Z,89.75
2022-12-24T20:35:50.137Z,90.05
2022-12-24T20:40:56.035Z,90.35
2022-12-24T20:45:57.812Z,90.71
2022-12-24T20:50:59.935Z,90.34
2022-12-24T20:56:02.183Z,90.06
2022-12-24T21:01:12.841Z,89.26
2022-12-24T21:06:17.702Z,89.13
2022-12-24T21:11:39.394Z,89.27
2022-12-24T21:16:43.326Z,89.69
2022-12-24T21:21:45.124Z,90.63
2022-12-24T21:26:46.839Z,90.88
2022-12-24T21:31:49.940Z,91.40
2022-12-24T21:36:51.711Z,91.99
2022-12-24T21:41:53.380Z,92.53
2022-12-24T21:46:55.089Z,92.40
2022-12-24T21:51:58.790Z,92.64
2022-12-24T21:57:22.325Z,93.35
2022-12-24T22:02:27.605Z,94.04
2022-12-24T22:07:48.035Z,94.54
2022-12-24T22:12:49.656Z,94.40
2022-12-24T22:17:51.427Z,94.30
2022-12-24T22:22:53.076Z,94.08
2022-12-24T22:27:55.493Z,94.41
2022-12-24T22:32:58.590Z,94.65
2022-12-24T22:38:00.585Z,95.01
2022-12-24T22:43:02.481Z,95.29
2022-12-24T22:48:04.450Z,95.29
2022-12-24T22:53:06.206Z,95.24
2022-12-24T22:58:07.895Z,95.16
2022-12-24T23:03:10.991Z,95.11
2022-12-24T23:08:13.844Z,94.85
2022-12-24T23:13:34.501Z,94.84
2022-12-24T23:18:36.136Z,94.76
2022-12-24T23:23:37.825Z,94.71
2022-12-24T23:28:40.157Z,94.55
2022-12-24T23:33:42.689Z,93.71
2022-12-24T23:38:44.476Z,92.88
2022-12-24T23:43:46.794Z,92.98
2022-12-24T23:48:48.802Z,93.25
2022-12-24T23:53:55.605Z,93.09
2022-12-24T23:58:57.233Z,92.54
